sensor_id;sensor_type;location;lat;lon;timestamp;temperature;humidity
48912;DHT22;34722;52.108;5.044;2022-08-01T00:02:16;18.80;99.90
48912;DHT22;34722;52.108;5.044;2022-08-01T00:04:42;18.70;99.90
48912;DHT22;34722;52.108;5.044;2022-08-01T00:07:07;18.60;99.90
48912;DHT22;34722;52.108;5.044;2022-08-01T00:09:33;18.70;99.90
48912;DHT22;34722;52.108;5.044;2022-08-01T00:11:59;18.70;99.90
48912;DHT22;34722;52.108;5.044;2022-08-01T00:14:25;18.70;99.90
48912;DHT22;34722;52.108;5.044;2022-08-01T00:16:50;18.70;99.90
48912;DHT22;34722;52.108;5.044;2022-08-01T00:19:16;18.70;99.90
48912;DHT22;34722;52.108;5.044;2022-08-01T00:21:42;18.70;99.90
48912;DHT22;34722;52.108;5.044;2022-08-01T00:24:07;18.70;99.90
48912;DHT22;34722;52.108;5.044;2022-08-01T00:26:33;18.70;99.90
48912;DHT22;34722;52.108;5.044;2022-08-01T00:28:59;18.70;99.90
48912;DHT22;34722;52.108;5.044;2022-08-01T00:31:24;18.70;99.90
48912;DHT22;34722;52.108;5.044;2022-08-01T00:33:50;18.70;99.90
48912;DHT22;34722;52.108;5.044;2022-08-01T00:36:15;18.70;99.90
48912;DHT22;34722;52.108;5.044;2022-08-01T00:38:41;18.70;99.90
48912;DHT22;34722;52.108;5.044;2022-08-01T00:41:07;18.70;99.90
48912;DHT22;34722;52.108;5.044;2022-08-01T00:43:33;18.70;99.90
48912;DHT22;34722;52.108;5.044;2022-08-01T00:45:59;18.70;99.90
48912;DHT22;34722;52.108;5.044;2022-08-01T00:48:25;18.70;99.90
48912;DHT22;34722;52.108;5.044;2022-08-01T00:50:53;18.70;99.90
48912;DHT22;34722;52.108;5.044;2022-08-01T00:53:19;18.70;99.90
48912;DHT22;34722;52.108;5.044;2022-08-01T00:55:46;18.70;99.90
48912;DHT22;34722;52.108;5.044;2022-08-01T00:58:15;18.60;99.90
48912;DHT22;34722;52.108;5.044;2022-08-01T01:00:41;18.60;99.90
48912;DHT22;34722;52.108;5.044;2022-08-01T01:03:06;18.60;99.90
48912;DHT22;34722;52.108;5.044;2022-08-01T01:05:40;18.60;99.90
48912;DHT22;34722;52.108;5.044;2022-08-01T01:08:16;18.60;99.90
48912;DHT22;34722;52.108;5.044;2022-08-01T01:10:54;18.60;99.90
48912;DHT22;34722;52.108;5.044;2022-08-01T01:13:43;18.60;99.90
48912;DHT22;34722;52.108;5.044;2022-08-01T01:16:15;18.60;99.90
48912;DHT22;34722;52.108;5.044;2022-08-01T01:18:54;18.60;99.90
48912;DHT22;34722;52.108;5.044;2022-08-01T01:24:17;18.60;99.90
48912;DHT22;34722;52.108;5.044;2022-08-01T01:27:18;18.50;99.90
48912;DHT22;34722;52.108;5.044;2022-08-01T01:29:51;18.50;99.90
48912;DHT22;34722;52.108;5.044;2022-08-01T01:35:09;18.60;99.90
48912;DHT22;34722;52.108;5.044;2022-08-01T01:37:41;18.50;99.90
48912;DHT22;34722;52.108;5.044;2022-08-01T01:40:09;18.50;99.90
48912;DHT22;34722;52.108;5.044;2022-08-01T01:42:37;18.50;99.90
48912;DHT22;34722;52.108;5.044;2022-08-01T01:45:07;18.50;99.90
48912;DHT22;34722;52.108;5.044;2022-08-01T01:47:34;18.60;99.90
48912;DHT22;34722;52.108;5.044;2022-08-01T01:50:02;18.60;99.90
48912;DHT22;34722;52.108;5.044;2022-08-01T01:52:36;18.60;99.90
48912;DHT22;34722;52.108;5.044;2022-08-01T01:55:08;18.60;99.90
48912;DHT22;34722;52.108;5.044;2022-08-01T01:57:39;18.60;99.90
48912;DHT22;34722;52.108;5.044;2022-08-01T02:00:15;18.60;99.90
48912;DHT22;34722;52.108;5.044;2022-08-01T02:02:42;18.60;99.90
48912;DHT22;34722;52.108;5.044;2022-08-01T02:05:12;18.60;99.90
48912;DHT22;34722;52.108;5.044;2022-08-01T02:07:39;18.60;99.90
48912;DHT22;34722;52.108;5.044;2022-08-01T02:10:12;18.60;99.90
48912;DHT22;34722;52.108;5.044;2022-08-01T02:12:41;18.50;99.90
48912;DHT22;34722;52.108;5.044;2022-08-01T02:15:08;18.50;99.90
48912;DHT22;34722;52.108;5.044;2022-08-01T02:17:39;18.50;99.90
48912;DHT22;34722;52.108;5.044;2022-08-01T02:20:06;18.50;99.90
48912;DHT22;34722;52.108;5.044;2022-08-01T02:22:37;18.50;99.90
48912;DHT22;34722;52.108;5.044;2022-08-01T02:27:43;18.60;99.90
48912;DHT22;34722;52.108;5.044;2022-08-01T02:30:13;18.60;99.90
48912;DHT22;34722;52.108;5.044;2022-08-01T02:32:44;18.60;99.90
48912;DHT22;34722;52.108;5.044;2022-08-01T02:35:17;18.60;99.90
48912;DHT22;34722;52.108;5.044;2022-08-01T02:37:45;18.60;99.90
48912;DHT22;34722;52.108;5.044;2022-08-01T02:40:13;18.50;99.90
48912;DHT22;34722;52.108;5.044;2022-08-01T02:42:47;18.50;99.90
48912;DHT22;34722;52.108;5.044;2022-08-01T02:45:13;18.50;99.90
48912;DHT22;34722;52.108;5.044;2022-08-01T02:47:42;18.40;99.90
48912;DHT22;34722;52.108;5.044;2022-08-01T02:50:10;18.40;99.90
48912;DHT22;34722;52.108;5.044;2022-08-01T02:52:39;18.30;99.90
48912;DHT22;34722;52.108;5.044;2022-08-01T02:55:05;18.30;99.90
48912;DHT22;34722;52.108;5.044;2022-08-01T02:57:33;18.30;99.90
48912;DHT22;34722;52.108;5.044;2022-08-01T02:59:59;18.30;99.90
48912;DHT22;34722;52.108;5.044;2022-08-01T03:02:26;18.30;99.90
48912;DHT22;34722;52.108;5.044;2022-08-01T03:04:53;18.30;99.90
48912;DHT22;34722;52.108;5.044;2022-08-01T03:07:20;18.40;99.90
48912;DHT22;34722;52.108;5.044;2022-08-01T03:09:47;18.40;99.90
48912;DHT22;34722;52.108;5.044;2022-08-01T03:12:19;18.30;99.90
48912;DHT22;34722;52.108;5.044;2022-08-01T03:14:49;18.30;99.90
48912;DHT22;34722;52.108;5.044;2022-08-01T03:17:25;18.30;99.90
48912;DHT22;34722;52.108;5.044;2022-08-01T03:19:53;18.30;99.90
48912;DHT22;34722;52.108;5.044;2022-08-01T03:22:21;18.30;99.90
48912;DHT22;34722;52.108;5.044;2022-08-01T03:24:52;18.20;99.90
48912;DHT22;34722;52.108;5.044;2022-08-01T03:27:21;18.10;99.90
48912;DHT22;34722;52.108;5.044;2022-08-01T03:29:48;18.00;99.90
48912;DHT22;34722;52.108;5.044;2022-08-01T03:32:16;18.00;99.90
48912;DHT22;34722;52.108;5.044;2022-08-01T03:34:42;18.00;99.90
48912;DHT22;34722;52.108;5.044;2022-08-01T03:40:05;18.00;99.90
48912;DHT22;34722;52.108;5.044;2022-08-01T03:42:34;17.90;99.90
48912;DHT22;34722;52.108;5.044;2022-08-01T03:45:06;17.80;99.90
48912;DHT22;34722;52.108;5.044;2022-08-01T03:47:35;17.70;99.90
48912;DHT22;34722;52.108;5.044;2022-08-01T03:50:03;17.60;99.90
48912;DHT22;34722;52.108;5.044;2022-08-01T03:52:30;17.60;99.90
48912;DHT22;34722;52.108;5.044;2022-08-01T03:54:59;17.60;99.90
48912;DHT22;34722;52.108;5.044;2022-08-01T03:57:28;17.60;99.90
48912;DHT22;34722;52.108;5.044;2022-08-01T03:59:56;17.50;99.90
48912;DHT22;34722;52.108;5.044;2022-08-01T04:02:23;17.50;99.90
48912;DHT22;34722;52.108;5.044;2022-08-01T04:04:48;17.50;99.90
48912;DHT22;34722;52.108;5.044;2022-08-01T04:07:31;17.50;99.90
48912;DHT22;34722;52.108;5.044;2022-08-01T04:09:57;17.40;99.90
48912;DHT22;34722;52.108;5.044;2022-08-01T04:12:23;17.40;99.90
48912;DHT22;34722;52.108;5.044;2022-08-01T04:14:49;17.40;99.90
48912;DHT22;34722;52.108;5.044;2022-08-01T04:17:16;17.50;99.90
48912;DHT22;34722;52.108;5.044;2022-08-01T04:19:42;17.50;99.90
48912;DHT22;34722;52.108;5.044;2022-08-01T04:22:10;17.60;99.90
48912;DHT22;34722;52.108;5.044;2022-08-01T04:24:37;17.80;99.90
48912;DHT22;34722;52.108;5.044;2022-08-01T04:27:05;17.70;99.90
48912;DHT22;34722;52.108;5.044;2022-08-01T04:29:33;17.70;99.90
48912;DHT22;34722;52.108;5.044;2022-08-01T04:32:00;17.80;99.90
48912;DHT22;34722;52.108;5.044;2022-08-01T04:34:28;17.90;99.90
48912;DHT22;34722;52.108;5.044;2022-08-01T04:36:55;17.90;99.90
48912;DHT22;34722;52.108;5.044;2022-08-01T04:39:24;18.00;99.90
48912;DHT22;34722;52.108;5.044;2022-08-01T04:41:54;18.00;99.90
48912;DHT22;34722;52.108;5.044;2022-08-01T04:44:22;18.10;99.90
48912;DHT22;34722;52.108;5.044;2022-08-01T04:46:49;18.10;99.90
48912;DHT22;34722;52.108;5.044;2022-08-01T04:49:16;18.20;99.90
48912;DHT22;34722;52.108;5.044;2022-08-01T04:51:55;18.20;99.90
48912;DHT22;34722;52.108;5.044;2022-08-01T04:54:30;18.20;99.90
48912;DHT22;34722;52.108;5.044;2022-08-01T04:56:58;18.20;99.90
48912;DHT22;34722;52.108;5.044;2022-08-01T04:59:37;18.30;99.90
48912;DHT22;34722;52.108;5.044;2022-08-01T05:02:08;18.30;99.90
48912;DHT22;34722;52.108;5.044;2022-08-01T05:04:34;18.40;99.90
48912;DHT22;34722;52.108;5.044;2022-08-01T05:07:00;18.40;99.90
48912;DHT22;34722;52.108;5.044;2022-08-01T05:09:27;18.40;99.90
48912;DHT22;34722;52.108;5.044;2022-08-01T05:11:53;18.40;99.90
48912;DHT22;34722;52.108;5.044;2022-08-01T05:14:18;18.40;99.90
48912;DHT22;34722;52.108;5.044;2022-08-01T05:16:45;18.30;99.90
48912;DHT22;34722;52.108;5.044;2022-08-01T05:19:11;18.30;99.90
48912;DHT22;34722;52.108;5.044;2022-08-01T05:21:37;18.40;99.90
48912;DHT22;34722;52.108;5.044;2022-08-01T05:24:04;18.40;99.90
48912;DHT22;34722;52.108;5.044;2022-08-01T05:26:30;18.40;99.90
48912;DHT22;34722;52.108;5.044;2022-08-01T05:28:56;18.50;99.90
48912;DHT22;34722;52.108;5.044;2022-08-01T05:31:21;18.60;99.90
48912;DHT22;34722;52.108;5.044;2022-08-01T05:33:47;18.60;99.90
48912;DHT22;34722;52.108;5.044;2022-08-01T05:36:13;18.60;99.90
48912;DHT22;34722;52.108;5.044;2022-08-01T05:38:38;18.70;99.90
48912;DHT22;34722;52.108;5.044;2022-08-01T05:41:04;18.80;99.90
48912;DHT22;34722;52.108;5.044;2022-08-01T05:43:30;18.80;99.90
48912;DHT22;34722;52.108;5.044;2022-08-01T05:45:55;18.90;99.90
48912;DHT22;34722;52.108;5.044;2022-08-01T05:48:21;18.80;99.90
48912;DHT22;34722;52.108;5.044;2022-08-01T05:50:46;18.90;99.90
48912;DHT22;34722;52.108;5.044;2022-08-01T05:53:13;19.00;99.90
48912;DHT22;34722;52.108;5.044;2022-08-01T05:55:39;19.00;99.90
48912;DHT22;34722;52.108;5.044;2022-08-01T05:58:04;18.90;99.90
48912;DHT22;34722;52.108;5.044;2022-08-01T06:00:30;19.00;99.90
48912;DHT22;34722;52.108;5.044;2022-08-01T06:02:56;19.00;99.90
48912;DHT22;34722;52.108;5.044;2022-08-01T06:05:22;19.00;99.90
48912;DHT22;34722;52.108;5.044;2022-08-01T06:07:47;19.10;99.90
48912;DHT22;34722;52.108;5.044;2022-08-01T06:10:13;19.20;99.90
48912;DHT22;34722;52.108;5.044;2022-08-01T06:12:39;19.20;99.90
48912;DHT22;34722;52.108;5.044;2022-08-01T06:15:05;19.40;99.90
48912;DHT22;34722;52.108;5.044;2022-08-01T06:17:31;19.50;99.90
48912;DHT22;34722;52.108;5.044;2022-08-01T06:19:56;19.60;99.90
48912;DHT22;34722;52.108;5.044;2022-08-01T06:22:25;19.70;99.90
48912;DHT22;34722;52.108;5.044;2022-08-01T06:24:51;19.80;99.90
48912;DHT22;34722;52.108;5.044;2022-08-01T06:27:17;19.90;99.90
48912;DHT22;34722;52.108;5.044;2022-08-01T06:29:42;19.90;99.90
48912;DHT22;34722;52.108;5.044;2022-08-01T06:32:09;19.90;99.90
48912;DHT22;34722;52.108;5.044;2022-08-01T06:34:35;19.90;99.90
48912;DHT22;34722;52.108;5.044;2022-08-01T06:37:00;19.70;99.90
48912;DHT22;34722;52.108;5.044;2022-08-01T06:39:26;19.60;99.90
48912;DHT22;34722;52.108;5.044;2022-08-01T06:41:52;19.40;99.90
48912;DHT22;34722;52.108;5.044;2022-08-01T06:44:17;19.40;99.90
48912;DHT22;34722;52.108;5.044;2022-08-01T06:46:43;19.30;99.90
48912;DHT22;34722;52.108;5.044;2022-08-01T06:49:08;19.30;99.90
48912;DHT22;34722;52.108;5.044;2022-08-01T06:51:34;19.20;99.90
48912;DHT22;34722;52.108;5.044;2022-08-01T06:54:00;19.20;99.90
48912;DHT22;34722;52.108;5.044;2022-08-01T06:56:25;19.30;99.90
48912;DHT22;34722;52.108;5.044;2022-08-01T06:58:51;19.30;99.90
48912;DHT22;34722;52.108;5.044;2022-08-01T07:01:16;19.20;99.90
48912;DHT22;34722;52.108;5.044;2022-08-01T07:03:42;19.20;99.90
48912;DHT22;34722;52.108;5.044;2022-08-01T07:06:08;19.30;99.90
48912;DHT22;34722;52.108;5.044;2022-08-01T07:08:33;19.50;99.90
48912;DHT22;34722;52.108;5.044;2022-08-01T07:10:59;19.80;99.90
48912;DHT22;34722;52.108;5.044;2022-08-01T07:13:26;20.00;99.90
48912;DHT22;34722;52.108;5.044;2022-08-01T07:15:52;20.00;99.90
48912;DHT22;34722;52.108;5.044;2022-08-01T07:18:19;20.00;99.90
48912;DHT22;34722;52.108;5.044;2022-08-01T07:20:44;20.10;99.90
48912;DHT22;34722;52.108;5.044;2022-08-01T07:23:12;20.10;99.90
48912;DHT22;34722;52.108;5.044;2022-08-01T07:25:38;20.00;99.90
48912;DHT22;34722;52.108;5.044;2022-08-01T07:28:03;19.90;96.40
48912;DHT22;34722;52.108;5.044;2022-08-01T07:30:29;19.70;99.70
48912;DHT22;34722;52.108;5.044;2022-08-01T07:32:55;19.50;96.10
48912;DHT22;34722;52.108;5.044;2022-08-01T07:35:21;19.50;93.50
48912;DHT22;34722;52.108;5.044;2022-08-01T07:37:47;19.70;73.30
48912;DHT22;34722;52.108;5.044;2022-08-01T07:40:13;20.00;42.10
48912;DHT22;34722;52.108;5.044;2022-08-01T07:42:39;20.50;19.70
48912;DHT22;34722;52.108;5.044;2022-08-01T07:45:09;21.00;1.00
48912;DHT22;34722;52.108;5.044;2022-08-01T07:47:35;21.30;1.00
48912;DHT22;34722;52.108;5.044;2022-08-01T07:50:02;21.70;1.00
48912;DHT22;34722;52.108;5.044;2022-08-01T07:52:28;21.90;1.00
48912;DHT22;34722;52.108;5.044;2022-08-01T07:54:54;22.60;1.00
48912;DHT22;34722;52.108;5.044;2022-08-01T07:57:20;23.10;1.00
48912;DHT22;34722;52.108;5.044;2022-08-01T07:59:45;23.30;99.90
48912;DHT22;34722;52.108;5.044;2022-08-01T08:02:11;23.50;99.90
48912;DHT22;34722;52.108;5.044;2022-08-01T08:04:36;23.70;99.90
48912;DHT22;34722;52.108;5.044;2022-08-01T08:07:02;23.90;99.90
48912;DHT22;34722;52.108;5.044;2022-08-01T08:09:27;23.80;99.90
48912;DHT22;34722;52.108;5.044;2022-08-01T08:11:53;23.90;1.00
48912;DHT22;34722;52.108;5.044;2022-08-01T08:14:19;24.50;1.00
48912;DHT22;34722;52.108;5.044;2022-08-01T08:16:47;24.70;99.90
48912;DHT22;34722;52.108;5.044;2022-08-01T08:19:13;24.70;1.00
48912;DHT22;34722;52.108;5.044;2022-08-01T08:21:39;24.80;99.90
48912;DHT22;34722;52.108;5.044;2022-08-01T08:24:09;24.90;72.10
48912;DHT22;34722;52.108;5.044;2022-08-01T08:26:50;25.10;1.00
48912;DHT22;34722;52.108;5.044;2022-08-01T08:29:16;25.50;1.00
48912;DHT22;34722;52.108;5.044;2022-08-01T08:31:42;25.20;32.10
48912;DHT22;34722;52.108;5.044;2022-08-01T08:34:08;24.80;1.00
48912;DHT22;34722;52.108;5.044;2022-08-01T08:36:33;24.70;99.90
48912;DHT22;34722;52.108;5.044;2022-08-01T08:38:59;24.20;1.00
48912;DHT22;34722;52.108;5.044;2022-08-01T08:41:32;24.00;1.00
48912;DHT22;34722;52.108;5.044;2022-08-01T08:44:06;23.80;49.00
48912;DHT22;34722;52.108;5.044;2022-08-01T08:46:33;23.90;99.90
48912;DHT22;34722;52.108;5.044;2022-08-01T08:49:00;24.50;99.90
48912;DHT22;34722;52.108;5.044;2022-08-01T08:51:26;25.10;99.90
48912;DHT22;34722;52.108;5.044;2022-08-01T08:53:56;25.40;1.00
48912;DHT22;34722;52.108;5.044;2022-08-01T08:56:24;25.70;99.90
48912;DHT22;34722;52.108;5.044;2022-08-01T08:58:51;25.60;99.90
48912;DHT22;34722;52.108;5.044;2022-08-01T09:01:18;25.50;99.90
48912;DHT22;34722;52.108;5.044;2022-08-01T09:03:43;25.50;99.90
48912;DHT22;34722;52.108;5.044;2022-08-01T09:06:10;25.90;99.90
48912;DHT22;34722;52.108;5.044;2022-08-01T09:08:35;26.40;99.90
48912;DHT22;34722;52.108;5.044;2022-08-01T09:11:02;27.40;99.90
48912;DHT22;34722;52.108;5.044;2022-08-01T09:13:27;28.30;93.10
48912;DHT22;34722;52.108;5.044;2022-08-01T09:15:54;28.40;41.80
48912;DHT22;34722;52.108;5.044;2022-08-01T09:18:37;27.90;27.70
48912;DHT22;34722;52.108;5.044;2022-08-01T09:23:36;26.50;32.50
48912;DHT22;34722;52.108;5.044;2022-08-01T09:26:05;26.00;45.40
48912;DHT22;34722;52.108;5.044;2022-08-01T09:28:31;25.20;75.50
48912;DHT22;34722;52.108;5.044;2022-08-01T09:30:57;25.00;99.90
48912;DHT22;34722;52.108;5.044;2022-08-01T09:33:23;25.00;99.90
48912;DHT22;34722;52.108;5.044;2022-08-01T09:35:56;24.90;99.90
48912;DHT22;34722;52.108;5.044;2022-08-01T09:38:23;24.80;99.90
48912;DHT22;34722;52.108;5.044;2022-08-01T09:40:53;24.60;99.90
48912;DHT22;34722;52.108;5.044;2022-08-01T09:43:21;24.80;99.90
48912;DHT22;34722;52.108;5.044;2022-08-01T09:45:48;24.50;99.90
48912;DHT22;34722;52.108;5.044;2022-08-01T09:48:14;24.30;99.90
48912;DHT22;34722;52.108;5.044;2022-08-01T09:50:45;24.30;99.90
48912;DHT22;34722;52.108;5.044;2022-08-01T09:53:12;24.30;99.90
48912;DHT22;34722;52.108;5.044;2022-08-01T09:55:39;24.50;99.90
48912;DHT22;34722;52.108;5.044;2022-08-01T09:58:05;24.40;99.90
48912;DHT22;34722;52.108;5.044;2022-08-01T10:00:32;24.70;99.90
48912;DHT22;34722;52.108;5.044;2022-08-01T10:02:58;25.20;99.90
48912;DHT22;34722;52.108;5.044;2022-08-01T10:05:32;25.30;99.90
48912;DHT22;34722;52.108;5.044;2022-08-01T10:08:00;25.80;99.90
48912;DHT22;34722;52.108;5.044;2022-08-01T10:10:27;26.20;99.90
48912;DHT22;34722;52.108;5.044;2022-08-01T10:12:55;26.50;99.90
48912;DHT22;34722;52.108;5.044;2022-08-01T10:15:21;27.20;99.90
48912;DHT22;34722;52.108;5.044;2022-08-01T10:17:53;27.80;93.90
48912;DHT22;34722;52.108;5.044;2022-08-01T10:20:22;28.10;91.20
48912;DHT22;34722;52.108;5.044;2022-08-01T10:22:50;27.90;18.40
48912;DHT22;34722;52.108;5.044;2022-08-01T10:25:19;28.00;22.40
48912;DHT22;34722;52.108;5.044;2022-08-01T10:27:47;28.20;32.70
48912;DHT22;34722;52.108;5.044;2022-08-01T10:30:14;28.80;38.20
48912;DHT22;34722;52.108;5.044;2022-08-01T10:32:41;29.40;15.00
48912;DHT22;34722;52.108;5.044;2022-08-01T10:35:10;29.90;1.00
48912;DHT22;34722;52.108;5.044;2022-08-01T10:37:43;30.10;1.00
48912;DHT22;34722;52.108;5.044;2022-08-01T10:40:12;30.40;1.00
48912;DHT22;34722;52.108;5.044;2022-08-01T10:42:42;30.10;1.00
48912;DHT22;34722;52.108;5.044;2022-08-01T10:45:13;30.20;1.00
48912;DHT22;34722;52.108;5.044;2022-08-01T10:50:40;31.20;1.00
48912;DHT22;34722;52.108;5.044;2022-08-01T10:53:08;30.90;1.00
48912;DHT22;34722;52.108;5.044;2022-08-01T10:56:07;30.60;1.00
48912;DHT22;34722;52.108;5.044;2022-08-01T10:58:37;29.80;1.00
48912;DHT22;34722;52.108;5.044;2022-08-01T11:01:32;29.90;1.00
48912;DHT22;34722;52.108;5.044;2022-08-01T11:04:13;30.50;1.00
48912;DHT22;34722;52.108;5.044;2022-08-01T11:07:02;30.60;1.00
48912;DHT22;34722;52.108;5.044;2022-08-01T11:09:45;30.90;1.00
48912;DHT22;34722;52.108;5.044;2022-08-01T11:17:34;31.30;1.00
48912;DHT22;34722;52.108;5.044;2022-08-01T11:20:05;31.10;1.00
48912;DHT22;34722;52.108;5.044;2022-08-01T11:22:31;31.30;1.00
48912;DHT22;34722;52.108;5.044;2022-08-01T11:24:56;31.20;1.00
48912;DHT22;34722;52.108;5.044;2022-08-01T11:27:30;31.40;1.00
48912;DHT22;34722;52.108;5.044;2022-08-01T11:32:57;31.60;1.00
48912;DHT22;34722;52.108;5.044;2022-08-01T11:35:24;32.20;1.00
48912;DHT22;34722;52.108;5.044;2022-08-01T11:37:53;32.70;1.00
48912;DHT22;34722;52.108;5.044;2022-08-01T11:40:24;32.70;1.00
48912;DHT22;34722;52.108;5.044;2022-08-01T11:48:25;34.50;1.00
48912;DHT22;34722;52.108;5.044;2022-08-01T11:50:55;34.60;1.00
48912;DHT22;34722;52.108;5.044;2022-08-01T11:53:21;34.60;1.00
48912;DHT22;34722;52.108;5.044;2022-08-01T11:55:52;35.00;1.00
48912;DHT22;34722;52.108;5.044;2022-08-01T11:58:23;34.90;1.00
48912;DHT22;34722;52.108;5.044;2022-08-01T12:00:57;34.80;1.00
48912;DHT22;34722;52.108;5.044;2022-08-01T12:03:27;34.80;1.00
48912;DHT22;34722;52.108;5.044;2022-08-01T12:05:54;34.50;1.00
48912;DHT22;34722;52.108;5.044;2022-08-01T12:08:28;33.90;1.00
48912;DHT22;34722;52.108;5.044;2022-08-01T12:10:54;33.00;1.00
48912;DHT22;34722;52.108;5.044;2022-08-01T12:13:20;33.80;1.00
48912;DHT22;34722;52.108;5.044;2022-08-01T12:15:47;34.00;1.00
48912;DHT22;34722;52.108;5.044;2022-08-01T12:18:12;34.40;1.00
48912;DHT22;34722;52.108;5.044;2022-08-01T12:20:41;33.80;1.00
48912;DHT22;34722;52.108;5.044;2022-08-01T12:23:16;34.00;1.00
48912;DHT22;34722;52.108;5.044;2022-08-01T12:25:42;32.30;1.00
48912;DHT22;34722;52.108;5.044;2022-08-01T12:28:12;33.00;1.00
48912;DHT22;34722;52.108;5.044;2022-08-01T12:30:39;33.20;1.00
48912;DHT22;34722;52.108;5.044;2022-08-01T12:33:10;32.80;1.00
48912;DHT22;34722;52.108;5.044;2022-08-01T12:35:41;31.80;1.00
48912;DHT22;34722;52.108;5.044;2022-08-01T12:38:15;31.20;1.00
48912;DHT22;34722;52.108;5.044;2022-08-01T12:40:43;30.30;1.00
48912;DHT22;34722;52.108;5.044;2022-08-01T12:43:09;29.50;1.00
48912;DHT22;34722;52.108;5.044;2022-08-01T12:45:40;29.40;1.00
48912;DHT22;34722;52.108;5.044;2022-08-01T12:48:10;29.30;1.00
48912;DHT22;34722;52.108;5.044;2022-08-01T12:50:41;29.00;1.00
48912;DHT22;34722;52.108;5.044;2022-08-01T12:53:08;28.60;1.00
48912;DHT22;34722;52.108;5.044;2022-08-01T12:55:50;28.40;1.00
48912;DHT22;34722;52.108;5.044;2022-08-01T12:58:17;28.00;1.00
48912;DHT22;34722;52.108;5.044;2022-08-01T13:00:46;28.00;1.00
48912;DHT22;34722;52.108;5.044;2022-08-01T13:03:13;27.70;1.00
48912;DHT22;34722;52.108;5.044;2022-08-01T13:05:48;27.60;1.00
48912;DHT22;34722;52.108;5.044;2022-08-01T13:08:24;27.50;1.00
48912;DHT22;34722;52.108;5.044;2022-08-01T13:10:50;27.50;1.00
48912;DHT22;34722;52.108;5.044;2022-08-01T13:13:33;27.50;1.00
48912;DHT22;34722;52.108;5.044;2022-08-01T13:16:07;27.80;1.00
48912;DHT22;34722;52.108;5.044;2022-08-01T13:18:34;28.00;1.00
48912;DHT22;34722;52.108;5.044;2022-08-01T13:21:17;28.10;1.00
48912;DHT22;34722;52.108;5.044;2022-08-01T13:24:09;27.90;1.00
48912;DHT22;34722;52.108;5.044;2022-08-01T13:26:54;27.80;1.00
48912;DHT22;34722;52.108;5.044;2022-08-01T13:29:30;27.60;1.00
48912;DHT22;34722;52.108;5.044;2022-08-01T13:31:57;27.20;1.00
48912;DHT22;34722;52.108;5.044;2022-08-01T13:34:31;27.00;1.00
48912;DHT22;34722;52.108;5.044;2022-08-01T13:36:57;26.70;1.00
48912;DHT22;34722;52.108;5.044;2022-08-01T13:39:22;26.80;1.00
48912;DHT22;34722;52.108;5.044;2022-08-01T13:42:06;26.70;1.00
48912;DHT22;34722;52.108;5.044;2022-08-01T13:44:32;26.90;1.00
48912;DHT22;34722;52.108;5.044;2022-08-01T13:46:58;26.90;1.00
48912;DHT22;34722;52.108;5.044;2022-08-01T13:49:23;26.90;1.00
48912;DHT22;34722;52.108;5.044;2022-08-01T13:51:49;27.00;1.00
48912;DHT22;34722;52.108;5.044;2022-08-01T13:54:18;26.60;1.00
48912;DHT22;34722;52.108;5.044;2022-08-01T13:56:43;26.40;1.00
48912;DHT22;34722;52.108;5.044;2022-08-01T13:59:09;26.10;1.00
48912;DHT22;34722;52.108;5.044;2022-08-01T14:01:35;26.00;1.00
48912;DHT22;34722;52.108;5.044;2022-08-01T14:04:01;26.00;1.00
48912;DHT22;34722;52.108;5.044;2022-08-01T14:06:27;26.00;1.00
48912;DHT22;34722;52.108;5.044;2022-08-01T14:08:53;26.00;1.00
48912;DHT22;34722;52.108;5.044;2022-08-01T14:11:18;26.00;1.00
48912;DHT22;34722;52.108;5.044;2022-08-01T14:13:44;25.50;1.00
48912;DHT22;34722;52.108;5.044;2022-08-01T14:16:10;25.40;1.00
48912;DHT22;34722;52.108;5.044;2022-08-01T14:18:36;25.50;1.00
48912;DHT22;34722;52.108;5.044;2022-08-01T14:21:01;25.80;1.00
48912;DHT22;34722;52.108;5.044;2022-08-01T14:23:27;25.80;1.00
48912;DHT22;34722;52.108;5.044;2022-08-01T14:25:53;26.00;1.00
48912;DHT22;34722;52.108;5.044;2022-08-01T14:28:18;26.10;1.00
48912;DHT22;34722;52.108;5.044;2022-08-01T14:30:44;26.10;1.00
48912;DHT22;34722;52.108;5.044;2022-08-01T14:33:10;25.80;1.00
48912;DHT22;34722;52.108;5.044;2022-08-01T14:35:36;25.90;1.00
48912;DHT22;34722;52.108;5.044;2022-08-01T14:38:03;25.90;1.00
48912;DHT22;34722;52.108;5.044;2022-08-01T14:40:29;25.90;1.00
48912;DHT22;34722;52.108;5.044;2022-08-01T14:42:54;25.70;1.00
48912;DHT22;34722;52.108;5.044;2022-08-01T14:45:20;25.80;1.00
48912;DHT22;34722;52.108;5.044;2022-08-01T14:47:45;25.90;1.00
48912;DHT22;34722;52.108;5.044;2022-08-01T14:50:14;25.60;1.00
48912;DHT22;34722;52.108;5.044;2022-08-01T14:52:40;25.50;1.00
48912;DHT22;34722;52.108;5.044;2022-08-01T14:55:08;25.00;1.00
48912;DHT22;34722;52.108;5.044;2022-08-01T14:57:35;24.80;1.00
48912;DHT22;34722;52.108;5.044;2022-08-01T15:00:01;24.80;1.00
48912;DHT22;34722;52.108;5.044;2022-08-01T15:02:26;24.90;1.00
48912;DHT22;34722;52.108;5.044;2022-08-01T15:04:52;24.90;1.00
48912;DHT22;34722;52.108;5.044;2022-08-01T15:07:18;25.10;1.00
48912;DHT22;34722;52.108;5.044;2022-08-01T15:09:45;25.10;1.00
48912;DHT22;34722;52.108;5.044;2022-08-01T15:12:11;25.40;1.00
48912;DHT22;34722;52.108;5.044;2022-08-01T15:14:37;25.30;1.00
48912;DHT22;34722;52.108;5.044;2022-08-01T15:17:19;25.40;1.00
48912;DHT22;34722;52.108;5.044;2022-08-01T15:19:46;25.40;1.00
48912;DHT22;34722;52.108;5.044;2022-08-01T15:22:15;25.30;1.00
48912;DHT22;34722;52.108;5.044;2022-08-01T15:24:41;25.20;1.00
48912;DHT22;34722;52.108;5.044;2022-08-01T15:27:07;25.00;1.00
48912;DHT22;34722;52.108;5.044;2022-08-01T15:29:33;25.00;1.00
48912;DHT22;34722;52.108;5.044;2022-08-01T15:32:00;24.90;1.00
48912;DHT22;34722;52.108;5.044;2022-08-01T15:34:26;24.80;1.00
48912;DHT22;34722;52.108;5.044;2022-08-01T15:36:51;24.80;1.00
48912;DHT22;34722;52.108;5.044;2022-08-01T15:39:17;24.80;1.00
48912;DHT22;34722;52.108;5.044;2022-08-01T15:41:43;24.90;1.00
48912;DHT22;34722;52.108;5.044;2022-08-01T15:44:09;24.90;1.00
48912;DHT22;34722;52.108;5.044;2022-08-01T15:46:35;24.50;1.00
48912;DHT22;34722;52.108;5.044;2022-08-01T15:49:04;24.70;1.00
48912;DHT22;34722;52.108;5.044;2022-08-01T15:51:33;24.50;1.00
48912;DHT22;34722;52.108;5.044;2022-08-01T15:53:59;24.40;1.00
48912;DHT22;34722;52.108;5.044;2022-08-01T15:56:29;24.30;1.00
48912;DHT22;34722;52.108;5.044;2022-08-01T15:58:55;24.30;1.00
48912;DHT22;34722;52.108;5.044;2022-08-01T16:01:21;24.30;1.00
48912;DHT22;34722;52.108;5.044;2022-08-01T16:03:46;24.30;1.00
48912;DHT22;34722;52.108;5.044;2022-08-01T16:06:12;24.20;1.00
48912;DHT22;34722;52.108;5.044;2022-08-01T16:08:38;24.10;1.00
48912;DHT22;34722;52.108;5.044;2022-08-01T16:11:03;23.80;1.00
48912;DHT22;34722;52.108;5.044;2022-08-01T16:13:29;23.80;1.00
48912;DHT22;34722;52.108;5.044;2022-08-01T16:15:55;23.80;1.00